sensor_id;sensor_type;location;lat;lon;timestamp;temperature;humidity
14604;DHT22;7388;51.078;13.740;2023-04-03T00:02:07;8.40;34.80
14604;DHT22;7388;51.078;13.740;2023-04-03T00:04:33;8.40;34.80
14604;DHT22;7388;51.078;13.740;2023-04-03T00:06:59;8.40;34.90
14604;DHT22;7388;51.078;13.740;2023-04-03T00:09:24;8.40;34.90
14604;DHT22;7388;51.078;13.740;2023-04-03T00:11:50;8.40;34.90
14604;DHT22;7388;51.078;13.740;2023-04-03T00:14:16;8.40;34.80
14604;DHT22;7388;51.078;13.740;2023-04-03T00:16:42;8.40;34.50
14604;DHT22;7388;51.078;13.740;2023-04-03T00:19:08;8.40;34.60
14604;DHT22;7388;51.078;13.740;2023-04-03T00:21:34;8.30;34.70
14604;DHT22;7388;51.078;13.740;2023-04-03T00:23:59;8.30;34.70
14604;DHT22;7388;51.078;13.740;2023-04-03T00:26:25;8.20;34.50
14604;DHT22;7388;51.078;13.740;2023-04-03T00:28:51;8.20;34.80
14604;DHT22;7388;51.078;13.740;2023-04-03T00:31:17;8.20;34.90
14604;DHT22;7388;51.078;13.740;2023-04-03T00:33:42;8.10;35.00
14604;DHT22;7388;51.078;13.740;2023-04-03T00:36:09;8.10;35.00
14604;DHT22;7388;51.078;13.740;2023-04-03T00:38:36;8.20;34.90
14604;DHT22;7388;51.078;13.740;2023-04-03T00:41:01;8.20;34.60
14604;DHT22;7388;51.078;13.740;2023-04-03T00:43:27;8.10;34.70
14604;DHT22;7388;51.078;13.740;2023-04-03T00:45:55;8.20;34.80
14604;DHT22;7388;51.078;13.740;2023-04-03T00:48:42;8.10;34.60
14604;DHT22;7388;51.078;13.740;2023-04-03T00:51:19;8.10;34.60
14604;DHT22;7388;51.078;13.740;2023-04-03T00:53:52;8.10;34.60
14604;DHT22;7388;51.078;13.740;2023-04-03T00:56:21;8.10;34.70
14604;DHT22;7388;51.078;13.740;2023-04-03T00:58:53;8.10;34.50
14604;DHT22;7388;51.078;13.740;2023-04-03T01:01:26;8.10;34.50
14604;DHT22;7388;51.078;13.740;2023-04-03T01:03:53;8.10;34.50
14604;DHT22;7388;51.078;13.740;2023-04-03T01:06:23;8.00;34.40
14604;DHT22;7388;51.078;13.740;2023-04-03T01:08:51;8.00;34.20
14604;DHT22;7388;51.078;13.740;2023-04-03T01:11:18;8.00;35.10
14604;DHT22;7388;51.078;13.740;2023-04-03T01:13:44;8.00;34.10
14604;DHT22;7388;51.078;13.740;2023-04-03T01:16:10;7.90;34.10
14604;DHT22;7388;51.078;13.740;2023-04-03T01:18:38;7.90;34.40
14604;DHT22;7388;51.078;13.740;2023-04-03T01:24:08;7.90;34.10
14604;DHT22;7388;51.078;13.740;2023-04-03T01:26:36;7.90;34.40
14604;DHT22;7388;51.078;13.740;2023-04-03T01:29:02;7.80;34.30
14604;DHT22;7388;51.078;13.740;2023-04-03T01:31:30;7.80;34.30
14604;DHT22;7388;51.078;13.740;2023-04-03T01:33:57;7.80;34.20
14604;DHT22;7388;51.078;13.740;2023-04-03T01:36:27;7.70;34.00
14604;DHT22;7388;51.078;13.740;2023-04-03T01:38:54;7.70;34.30
14604;DHT22;7388;51.078;13.740;2023-04-03T01:41:20;7.70;34.10
14604;DHT22;7388;51.078;13.740;2023-04-03T01:43:49;7.70;34.30
14604;DHT22;7388;51.078;13.740;2023-04-03T01:46:16;7.70;34.30
14604;DHT22;7388;51.078;13.740;2023-04-03T01:48:42;7.60;34.00
14604;DHT22;7388;51.078;13.740;2023-04-03T01:51:08;7.70;34.20
14604;DHT22;7388;51.078;13.740;2023-04-03T01:53:34;7.60;34.20
14604;DHT22;7388;51.078;13.740;2023-04-03T01:55:59;7.60;34.10
14604;DHT22;7388;51.078;13.740;2023-04-03T01:58:25;7.50;34.20
14604;DHT22;7388;51.078;13.740;2023-04-03T02:00:51;7.50;34.20
14604;DHT22;7388;51.078;13.740;2023-04-03T02:03:18;7.50;34.30
14604;DHT22;7388;51.078;13.740;2023-04-03T02:05:44;7.50;34.20
14604;DHT22;7388;51.078;13.740;2023-04-03T02:08:10;7.50;34.40
14604;DHT22;7388;51.078;13.740;2023-04-03T02:10:37;7.50;34.20
14604;DHT22;7388;51.078;13.740;2023-04-03T02:13:02;7.50;34.30
14604;DHT22;7388;51.078;13.740;2023-04-03T02:15:28;7.40;34.00
14604;DHT22;7388;51.078;13.740;2023-04-03T02:17:54;7.40;34.20
14604;DHT22;7388;51.078;13.740;2023-04-03T02:20:20;7.30;34.20
14604;DHT22;7388;51.078;13.740;2023-04-03T02:22:46;7.30;34.10
14604;DHT22;7388;51.078;13.740;2023-04-03T02:25:12;7.30;34.00
14604;DHT22;7388;51.078;13.740;2023-04-03T02:27:38;7.20;34.20
14604;DHT22;7388;51.078;13.740;2023-04-03T02:30:04;7.20;34.30
14604;DHT22;7388;51.078;13.740;2023-04-03T02:32:31;7.20;34.40
14604;DHT22;7388;51.078;13.740;2023-04-03T02:34:56;7.10;34.30
14604;DHT22;7388;51.078;13.740;2023-04-03T02:37:22;7.10;34.50
14604;DHT22;7388;51.078;13.740;2023-04-03T02:39:48;7.10;34.40
14604;DHT22;7388;51.078;13.740;2023-04-03T02:42:14;7.00;34.40
14604;DHT22;7388;51.078;13.740;2023-04-03T02:44:40;7.00;34.30
14604;DHT22;7388;51.078;13.740;2023-04-03T02:47:05;7.00;34.40
14604;DHT22;7388;51.078;13.740;2023-04-03T02:49:31;6.90;34.40
14604;DHT22;7388;51.078;13.740;2023-04-03T02:51:57;6.90;34.40
14604;DHT22;7388;51.078;13.740;2023-04-03T02:54:23;6.80;34.40
14604;DHT22;7388;51.078;13.740;2023-04-03T02:56:53;6.80;34.40
14604;DHT22;7388;51.078;13.740;2023-04-03T02:59:18;6.70;34.40
14604;DHT22;7388;51.078;13.740;2023-04-03T03:01:44;6.70;34.50
14604;DHT22;7388;51.078;13.740;2023-04-03T03:04:10;6.60;34.50
14604;DHT22;7388;51.078;13.740;2023-04-03T03:06:35;6.50;34.50
14604;DHT22;7388;51.078;13.740;2023-04-03T03:09:01;6.50;34.60
14604;DHT22;7388;51.078;13.740;2023-04-03T03:11:29;6.50;34.60
14604;DHT22;7388;51.078;13.740;2023-04-03T03:13:55;6.40;34.60
14604;DHT22;7388;51.078;13.740;2023-04-03T03:16:21;6.30;34.80
14604;DHT22;7388;51.078;13.740;2023-04-03T03:18:47;6.30;34.70
14604;DHT22;7388;51.078;13.740;2023-04-03T03:21:13;6.30;34.80
14604;DHT22;7388;51.078;13.740;2023-04-03T03:23:39;6.30;35.00
14604;DHT22;7388;51.078;13.740;2023-04-03T03:26:08;6.20;34.90
14604;DHT22;7388;51.078;13.740;2023-04-03T03:28:34;6.20;35.00
14604;DHT22;7388;51.078;13.740;2023-04-03T03:31:02;6.10;35.00
14604;DHT22;7388;51.078;13.740;2023-04-03T03:33:28;6.10;35.10
14604;DHT22;7388;51.078;13.740;2023-04-03T03:35:55;6.10;35.10
14604;DHT22;7388;51.078;13.740;2023-04-03T03:38:21;6.00;35.10
14604;DHT22;7388;51.078;13.740;2023-04-03T03:40:48;6.00;35.20
14604;DHT22;7388;51.078;13.740;2023-04-03T03:43:14;6.00;35.90
14604;DHT22;7388;51.078;13.740;2023-04-03T03:45:40;5.90;35.30
14604;DHT22;7388;51.078;13.740;2023-04-03T03:48:06;5.90;35.40
14604;DHT22;7388;51.078;13.740;2023-04-03T03:50:32;5.90;35.60
14604;DHT22;7388;51.078;13.740;2023-04-03T03:52:58;5.80;35.40
14604;DHT22;7388;51.078;13.740;2023-04-03T03:55:24;5.80;35.50
14604;DHT22;7388;51.078;13.740;2023-04-03T03:57:50;5.80;35.50
14604;DHT22;7388;51.078;13.740;2023-04-03T04:00:16;5.80;35.70
14604;DHT22;7388;51.078;13.740;2023-04-03T04:02:42;5.70;35.70
14604;DHT22;7388;51.078;13.740;2023-04-03T04:05:08;5.70;35.90
14604;DHT22;7388;51.078;13.740;2023-04-03T04:07:34;5.60;35.90
14604;DHT22;7388;51.078;13.740;2023-04-03T04:10:00;5.60;36.00
14604;DHT22;7388;51.078;13.740;2023-04-03T04:12:26;5.60;35.90
14604;DHT22;7388;51.078;13.740;2023-04-03T04:14:52;5.60;36.00
14604;DHT22;7388;51.078;13.740;2023-04-03T04:17:18;5.60;36.00
14604;DHT22;7388;51.078;13.740;2023-04-03T04:19:43;5.50;36.00
14604;DHT22;7388;51.078;13.740;2023-04-03T04:22:09;5.50;36.10
14604;DHT22;7388;51.078;13.740;2023-04-03T04:24:35;5.50;36.10
14604;DHT22;7388;51.078;13.740;2023-04-03T04:27:00;5.50;36.30
14604;DHT22;7388;51.078;13.740;2023-04-03T04:29:26;5.40;36.30
14604;DHT22;7388;51.078;13.740;2023-04-03T04:31:52;5.40;36.40
14604;DHT22;7388;51.078;13.740;2023-04-03T04:34:17;5.40;36.60
14604;DHT22;7388;51.078;13.740;2023-04-03T04:36:43;5.30;36.60
14604;DHT22;7388;51.078;13.740;2023-04-03T04:39:09;5.30;36.80
14604;DHT22;7388;51.078;13.740;2023-04-03T04:41:35;5.20;36.70
14604;DHT22;7388;51.078;13.740;2023-04-03T04:44:01;5.20;37.10
14604;DHT22;7388;51.078;13.740;2023-04-03T04:46:27;5.20;37.10
14604;DHT22;7388;51.078;13.740;2023-04-03T04:48:52;5.10;37.10
14604;DHT22;7388;51.078;13.740;2023-04-03T04:51:18;5.10;37.10
14604;DHT22;7388;51.078;13.740;2023-04-03T04:53:44;5.10;37.80
14604;DHT22;7388;51.078;13.740;2023-04-03T04:56:11;5.10;37.30
14604;DHT22;7388;51.078;13.740;2023-04-03T04:58:37;5.10;37.30
14604;DHT22;7388;51.078;13.740;2023-04-03T05:01:05;5.10;37.30
14604;DHT22;7388;51.078;13.740;2023-04-03T05:03:32;5.10;37.30
14604;DHT22;7388;51.078;13.740;2023-04-03T05:05:58;5.10;37.40
14604;DHT22;7388;51.078;13.740;2023-04-03T05:08:25;5.10;37.50
14604;DHT22;7388;51.078;13.740;2023-04-03T05:10:51;5.10;37.50
14604;DHT22;7388;51.078;13.740;2023-04-03T05:13:19;5.10;37.50
14604;DHT22;7388;51.078;13.740;2023-04-03T05:15:45;5.10;37.50
14604;DHT22;7388;51.078;13.740;2023-04-03T05:18:11;5.10;37.50
14604;DHT22;7388;51.078;13.740;2023-04-03T05:20:37;5.10;37.50
14604;DHT22;7388;51.078;13.740;2023-04-03T05:23:03;5.00;37.60
14604;DHT22;7388;51.078;13.740;2023-04-03T05:25:28;5.10;37.70
14604;DHT22;7388;51.078;13.740;2023-04-03T05:27:55;5.10;37.70
14604;DHT22;7388;51.078;13.740;2023-04-03T05:30:20;5.10;37.80
14604;DHT22;7388;51.078;13.740;2023-04-03T05:32:46;5.10;37.70
14604;DHT22;7388;51.078;13.740;2023-04-03T05:35:12;5.10;37.70
14604;DHT22;7388;51.078;13.740;2023-04-03T05:37:38;5.10;37.70
14604;DHT22;7388;51.078;13.740;2023-04-03T05:40:04;5.20;37.60
14604;DHT22;7388;51.078;13.740;2023-04-03T05:42:31;5.20;37.60
14604;DHT22;7388;51.078;13.740;2023-04-03T05:44:56;5.20;37.70
14604;DHT22;7388;51.078;13.740;2023-04-03T05:47:22;5.30;37.80
14604;DHT22;7388;51.078;13.740;2023-04-03T05:49:48;5.30;37.70
14604;DHT22;7388;51.078;13.740;2023-04-03T05:52:27;5.30;37.70
14604;DHT22;7388;51.078;13.740;2023-04-03T05:54:53;5.40;37.70
14604;DHT22;7388;51.078;13.740;2023-04-03T05:57:19;5.50;37.80
14604;DHT22;7388;51.078;13.740;2023-04-03T05:59:45;5.60;37.80
14604;DHT22;7388;51.078;13.740;2023-04-03T06:02:14;5.70;37.90
14604;DHT22;7388;51.078;13.740;2023-04-03T06:04:40;5.80;37.70
14604;DHT22;7388;51.078;13.740;2023-04-03T06:07:06;5.90;37.60
14604;DHT22;7388;51.078;13.740;2023-04-03T06:09:34;6.10;37.70
14604;DHT22;7388;51.078;13.740;2023-04-03T06:12:00;6.20;37.30
14604;DHT22;7388;51.078;13.740;2023-04-03T06:14:27;6.30;37.30
14604;DHT22;7388;51.078;13.740;2023-04-03T06:16:53;6.40;37.00
14604;DHT22;7388;51.078;13.740;2023-04-03T06:19:19;6.50;36.90
14604;DHT22;7388;51.078;13.740;2023-04-03T06:21:46;6.50;37.00
14604;DHT22;7388;51.078;13.740;2023-04-03T06:24:14;6.60;37.10
14604;DHT22;7388;51.078;13.740;2023-04-03T06:26:41;6.60;36.60
14604;DHT22;7388;51.078;13.740;2023-04-03T06:29:07;6.60;36.50
14604;DHT22;7388;51.078;13.740;2023-04-03T06:31:33;6.70;36.70
14604;DHT22;7388;51.078;13.740;2023-04-03T06:33:59;6.70;36.40
14604;DHT22;7388;51.078;13.740;2023-04-03T06:36:25;6.60;36.60
14604;DHT22;7388;51.078;13.740;2023-04-03T06:38:51;6.60;36.60
14604;DHT22;7388;51.078;13.740;2023-04-03T06:41:17;6.70;36.50
14604;DHT22;7388;51.078;13.740;2023-04-03T06:43:46;6.70;36.30
14604;DHT22;7388;51.078;13.740;2023-04-03T06:46:16;6.70;36.60
14604;DHT22;7388;51.078;13.740;2023-04-03T06:48:43;6.70;36.50
14604;DHT22;7388;51.078;13.740;2023-04-03T06:53:46;6.80;36.70
14604;DHT22;7388;51.078;13.740;2023-04-03T06:56:12;6.80;36.60
14604;DHT22;7388;51.078;13.740;2023-04-03T06:58:38;6.90;36.70
14604;DHT22;7388;51.078;13.740;2023-04-03T07:01:04;6.90;36.30
14604;DHT22;7388;51.078;13.740;2023-04-03T07:03:30;6.90;36.40
14604;DHT22;7388;51.078;13.740;2023-04-03T07:05:55;7.00;36.30
14604;DHT22;7388;51.078;13.740;2023-04-03T07:08:21;7.00;36.60
14604;DHT22;7388;51.078;13.740;2023-04-03T07:10:48;7.10;36.70
14604;DHT22;7388;51.078;13.740;2023-04-03T07:13:15;7.20;36.00
14604;DHT22;7388;51.078;13.740;2023-04-03T07:15:41;7.20;35.90
14604;DHT22;7388;51.078;13.740;2023-04-03T07:18:06;7.20;36.20
14604;DHT22;7388;51.078;13.740;2023-04-03T07:20:33;7.20;36.10
14604;DHT22;7388;51.078;13.740;2023-04-03T07:22:58;7.30;36.00
14604;DHT22;7388;51.078;13.740;2023-04-03T07:25:25;7.30;36.00
14604;DHT22;7388;51.078;13.740;2023-04-03T07:27:51;7.30;36.10
14604;DHT22;7388;51.078;13.740;2023-04-03T07:30:20;7.30;35.70
14604;DHT22;7388;51.078;13.740;2023-04-03T07:32:46;7.40;35.50
14604;DHT22;7388;51.078;13.740;2023-04-03T07:35:12;7.30;35.50
14604;DHT22;7388;51.078;13.740;2023-04-03T07:37:38;7.30;35.90
14604;DHT22;7388;51.078;13.740;2023-04-03T07:40:05;7.40;36.10
14604;DHT22;7388;51.078;13.740;2023-04-03T07:42:32;7.50;35.60
14604;DHT22;7388;51.078;13.740;2023-04-03T07:44:58;7.50;35.40
14604;DHT22;7388;51.078;13.740;2023-04-03T07:47:23;7.50;35.50
14604;DHT22;7388;51.078;13.740;2023-04-03T07:49:49;7.50;35.40
14604;DHT22;7388;51.078;13.740;2023-04-03T07:52:15;7.50;35.60
14604;DHT22;7388;51.078;13.740;2023-04-03T07:54:41;7.60;35.90
14604;DHT22;7388;51.078;13.740;2023-04-03T07:57:07;7.60;35.60
14604;DHT22;7388;51.078;13.740;2023-04-03T07:59:33;7.70;35.60
14604;DHT22;7388;51.078;13.740;2023-04-03T08:01:59;7.80;35.60
14604;DHT22;7388;51.078;13.740;2023-04-03T08:04:25;7.90;35.50
14604;DHT22;7388;51.078;13.740;2023-04-03T08:06:51;7.90;35.00
14604;DHT22;7388;51.078;13.740;2023-04-03T08:09:18;7.90;35.30
14604;DHT22;7388;51.078;13.740;2023-04-03T08:11:45;7.90;34.90
14604;DHT22;7388;51.078;13.740;2023-04-03T08:14:12;8.00;35.20
14604;DHT22;7388;51.078;13.740;2023-04-03T08:16:45;8.10;35.70
14604;DHT22;7388;51.078;13.740;2023-04-03T08:19:11;8.20;35.50
14604;DHT22;7388;51.078;13.740;2023-04-03T08:21:40;8.30;34.70
14604;DHT22;7388;51.078;13.740;2023-04-03T08:24:08;8.30;34.50
14604;DHT22;7388;51.078;13.740;2023-04-03T08:26:34;8.40;34.50
14604;DHT22;7388;51.078;13.740;2023-04-03T08:29:01;8.50;34.50
14604;DHT22;7388;51.078;13.740;2023-04-03T08:31:27;8.50;34.20
14604;DHT22;7388;51.078;13.740;2023-04-03T08:33:53;8.60;34.40
14604;DHT22;7388;51.078;13.740;2023-04-03T08:38:46;8.60;34.00
14604;DHT22;7388;51.078;13.740;2023-04-03T08:50:08;8.70;34.30
14604;DHT22;7388;51.078;13.740;2023-04-03T08:52:53;8.70;34.10
14604;DHT22;7388;51.078;13.740;2023-04-03T08:55:45;8.80;33.90
14604;DHT22;7388;51.078;13.740;2023-04-03T08:58:15;8.80;33.90
14604;DHT22;7388;51.078;13.740;2023-04-03T09:00:50;8.90;33.70
14604;DHT22;7388;51.078;13.740;2023-04-03T09:03:19;9.00;33.90
14604;DHT22;7388;51.078;13.740;2023-04-03T09:06:05;9.00;33.60
14604;DHT22;7388;51.078;13.740;2023-04-03T09:08:40;9.10;33.50
14604;DHT22;7388;51.078;13.740;2023-04-03T09:11:21;9.10;33.50
14604;DHT22;7388;51.078;13.740;2023-04-03T09:14:15;9.20;33.80
14604;DHT22;7388;51.078;13.740;2023-04-03T09:17:00;9.20;32.80
14604;DHT22;7388;51.078;13.740;2023-04-03T09:21:58;9.60;33.10
14604;DHT22;7388;51.078;13.740;2023-04-03T09:24:25;9.70;32.80
14604;DHT22;7388;51.078;13.740;2023-04-03T09:27:03;9.90;32.80
14604;DHT22;7388;51.078;13.740;2023-04-03T09:29:30;10.00;32.50
14604;DHT22;7388;51.078;13.740;2023-04-03T09:32:01;10.00;32.30
14604;DHT22;7388;51.078;13.740;2023-04-03T09:34:32;10.00;32.40
14604;DHT22;7388;51.078;13.740;2023-04-03T09:37:02;10.10;32.40
14604;DHT22;7388;51.078;13.740;2023-04-03T09:39:33;10.10;32.70
14604;DHT22;7388;51.078;13.740;2023-04-03T09:42:21;10.10;31.50
14604;DHT22;7388;51.078;13.740;2023-04-03T09:45:02;10.10;31.80
14604;DHT22;7388;51.078;13.740;2023-04-03T09:47:31;10.20;31.30
14604;DHT22;7388;51.078;13.740;2023-04-03T09:52:41;10.10;31.70
14604;DHT22;7388;51.078;13.740;2023-04-03T09:55:23;10.20;31.40
14604;DHT22;7388;51.078;13.740;2023-04-03T09:57:59;10.30;31.50
14604;DHT22;7388;51.078;13.740;2023-04-03T10:00:28;10.50;31.60
14604;DHT22;7388;51.078;13.740;2023-04-03T10:02:56;10.60;31.70
14604;DHT22;7388;51.078;13.740;2023-04-03T10:05:37;10.70;31.00
14604;DHT22;7388;51.078;13.740;2023-04-03T10:10:54;10.80;30.30
14604;DHT22;7388;51.078;13.740;2023-04-03T10:13:30;10.80;29.40
14604;DHT22;7388;51.078;13.740;2023-04-03T10:16:06;10.90;29.60
14604;DHT22;7388;51.078;13.740;2023-04-03T10:18:39;11.10;29.30
14604;DHT22;7388;51.078;13.740;2023-04-03T10:21:32;11.50;31.30
14604;DHT22;7388;51.078;13.740;2023-04-03T10:24:21;11.90;29.60
14604;DHT22;7388;51.078;13.740;2023-04-03T10:38:31;11.90;26.30
14604;DHT22;7388;51.078;13.740;2023-04-03T10:43:44;12.20;26.80
14604;DHT22;7388;51.078;13.740;2023-04-03T10:46:23;12.20;26.40
14604;DHT22;7388;51.078;13.740;2023-04-03T10:49:05;12.10;27.00
14604;DHT22;7388;51.078;13.740;2023-04-03T10:54:18;12.10;25.60
14604;DHT22;7388;51.078;13.740;2023-04-03T10:57:05;12.00;25.50
14604;DHT22;7388;51.078;13.740;2023-04-03T10:59:53;11.90;25.00
14604;DHT22;7388;51.078;13.740;2023-04-03T11:02:31;11.80;24.80
14604;DHT22;7388;51.078;13.740;2023-04-03T11:05:18;11.70;26.40
14604;DHT22;7388;51.078;13.740;2023-04-03T11:07:50;11.70;25.30
14604;DHT22;7388;51.078;13.740;2023-04-03T11:10:37;11.60;24.30
14604;DHT22;7388;51.078;13.740;2023-04-03T11:13:20;11.50;25.00
14604;DHT22;7388;51.078;13.740;2023-04-03T11:15:49;11.40;25.40
14604;DHT22;7388;51.078;13.740;2023-04-03T11:18:19;11.40;26.20
14604;DHT22;7388;51.078;13.740;2023-04-03T11:21:12;11.40;26.30
14604;DHT22;7388;51.078;13.740;2023-04-03T11:23:40;11.50;26.30
14604;DHT22;7388;51.078;13.740;2023-04-03T11:26:31;11.80;25.70
14604;DHT22;7388;51.078;13.740;2023-04-03T11:29:11;12.00;25.80
14604;DHT22;7388;51.078;13.740;2023-04-03T11:31:47;12.20;24.40
14604;DHT22;7388;51.078;13.740;2023-04-03T11:34:39;12.30;25.00
14604;DHT22;7388;51.078;13.740;2023-04-03T11:39:57;12.20;24.00
14604;DHT22;7388;51.078;13.740;2023-04-03T11:42:34;12.20;24.50
14604;DHT22;7388;51.078;13.740;2023-04-03T11:45:52;12.10;24.80
14604;DHT22;7388;51.078;13.740;2023-04-03T11:53:37;11.90;24.20
14604;DHT22;7388;51.078;13.740;2023-04-03T11:56:27;11.70;24.10
14604;DHT22;7388;51.078;13.740;2023-04-03T11:59:15;11.50;25.00
14604;DHT22;7388;51.078;13.740;2023-04-03T12:01:56;11.50;25.70
14604;DHT22;7388;51.078;13.740;2023-04-03T12:04:25;11.50;25.30
14604;DHT22;7388;51.078;13.740;2023-04-03T12:06:58;11.40;25.10
14604;DHT22;7388;51.078;13.740;2023-04-03T12:11:56;11.50;25.20
14604;DHT22;7388;51.078;13.740;2023-04-03T12:14:23;11.60;25.10
14604;DHT22;7388;51.078;13.740;2023-04-03T12:16:53;11.80;24.50
14604;DHT22;7388;51.078;13.740;2023-04-03T12:19:33;11.90;24.00
14604;DHT22;7388;51.078;13.740;2023-04-03T12:27:02;11.80;24.20
14604;DHT22;7388;51.078;13.740;2023-04-03T12:37:57;11.80;23.80
14604;DHT22;7388;51.078;13.740;2023-04-03T12:43:25;11.50;24.90
14604;DHT22;7388;51.078;13.740;2023-04-03T12:46:03;11.40;24.70
14604;DHT22;7388;51.078;13.740;2023-04-03T12:48:32;11.30;24.60
14604;DHT22;7388;51.078;13.740;2023-04-03T12:50:59;11.30;25.30
14604;DHT22;7388;51.078;13.740;2023-04-03T12:53:32;11.20;24.90
14604;DHT22;7388;51.078;13.740;2023-04-03T12:58:46;11.10;25.10
14604;DHT22;7388;51.078;13.740;2023-04-03T13:01:18;11.10;25.50
14604;DHT22;7388;51.078;13.740;2023-04-03T13:03:49;11.10;25.60
14604;DHT22;7388;51.078;13.740;2023-04-03T13:08:58;11.20;25.20
14604;DHT22;7388;51.078;13.740;2023-04-03T13:11:28;11.30;25.20
14604;DHT22;7388;51.078;13.740;2023-04-03T13:14:02;11.30;25.60
14604;DHT22;7388;51.078;13.740;2023-04-03T13:16:29;11.30;25.80
14604;DHT22;7388;51.078;13.740;2023-04-03T13:18:55;11.30;24.70
14604;DHT22;7388;51.078;13.740;2023-04-03T13:21:25;11.40;25.00
14604;DHT22;7388;51.078;13.740;2023-04-03T13:23:57;11.40;25.40
14604;DHT22;7388;51.078;13.740;2023-04-03T13:26:27;11.60;26.10
14604;DHT22;7388;51.078;13.740;2023-04-03T13:28:57;11.80;25.20
14604;DHT22;7388;51.078;13.740;2023-04-03T13:31:27;12.00;26.30
14604;DHT22;7388;51.078;13.740;2023-04-03T13:33:58;12.20;24.10
14604;DHT22;7388;51.078;13.740;2023-04-03T13:36:36;12.20;25.20
14604;DHT22;7388;51.078;13.740;2023-04-03T13:39:32;12.30;24.80
14604;DHT22;7388;51.078;13.740;2023-04-03T13:42:00;12.20;23.70
14604;DHT22;7388;51.078;13.740;2023-04-03T13:47:20;11.90;24.50
14604;DHT22;7388;51.078;13.740;2023-04-03T13:50:00;11.80;24.80
14604;DHT22;7388;51.078;13.740;2023-04-03T13:52:29;11.70;24.70
14604;DHT22;7388;51.078;13.740;2023-04-03T13:55:00;11.60;24.90
14604;DHT22;7388;51.078;13.740;2023-04-03T13:57:27;11.60;25.00
14604;DHT22;7388;51.078;13.740;2023-04-03T13:59:53;11.50;24.60
14604;DHT22;7388;51.078;13.740;2023-04-03T14:02:32;11.40;23.00
14604;DHT22;7388;51.078;13.740;2023-04-03T14:05:00;11.40;23.40
14604;DHT22;7388;51.078;13.740;2023-04-03T14:07:28;11.50;24.90
14604;DHT22;7388;51.078;13.740;2023-04-03T14:09:54;11.80;24.80
14604;DHT22;7388;51.078;13.740;2023-04-03T14:14:46;12.00;24.00
14604;DHT22;7388;51.078;13.740;2023-04-03T14:17:24;11.90;23.80
14604;DHT22;7388;51.078;13.740;2023-04-03T14:19:51;11.80;23.20
14604;DHT22;7388;51.078;13.740;2023-04-03T14:22:26;11.60;23.00
14604;DHT22;7388;51.078;13.740;2023-04-03T14:24:52;11.40;23.80
14604;DHT22;7388;51.078;13.740;2023-04-03T14:27:25;11.30;23.80
14604;DHT22;7388;51.078;13.740;2023-04-03T14:29:53;11.20;23.50
14604;DHT22;7388;51.078;13.740;2023-04-03T14:32:24;11.10;23.80
14604;DHT22;7388;51.078;13.740;2023-04-03T14:34:51;11.00;24.00
14604;DHT22;7388;51.078;13.740;2023-04-03T14:37:20;10.90;24.00
14604;DHT22;7388;51.078;13.740;2023-04-03T14:39:48;10.90;24.60
14604;DHT22;7388;51.078;13.740;2023-04-03T14:42:23;10.90;25.00
14604;DHT22;7388;51.078;13.740;2023-04-03T14:44:50;10.90;24.60
14604;DHT22;7388;51.078;13.740;2023-04-03T14:47:19;11.00;25.30
14604;DHT22;7388;51.078;13.740;2023-04-03T14:49:46;11.30;26.00
14604;DHT22;7388;51.078;13.740;2023-04-03T14:52:25;11.60;25.70
14604;DHT22;7388;51.078;13.740;2023-04-03T14:54:52;11.90;24.80
14604;DHT22;7388;51.078;13.740;2023-04-03T14:57:17;12.10;24.30
14604;DHT22;7388;51.078;13.740;2023-04-03T14:59:45;12.20;23.70
14604;DHT22;7388;51.078;13.740;2023-04-03T15:02:32;12.20;23.50
14604;DHT22;7388;51.078;13.740;2023-04-03T15:05:02;12.10;22.10
14604;DHT22;7388;51.078;13.740;2023-04-03T15:07:37;12.00;23.00
14604;DHT22;7388;51.078;13.740;2023-04-03T15:10:24;11.90;22.40
14604;DHT22;7388;51.078;13.740;2023-04-03T15:12:51;11.80;22.70
14604;DHT22;7388;51.078;13.740;2023-04-03T15:15:19;11.70;22.40
14604;DHT22;7388;51.078;13.740;2023-04-03T15:17:46;11.50;23.20
14604;DHT22;7388;51.078;13.740;2023-04-03T15:20:19;11.50;23.00
14604;DHT22;7388;51.078;13.740;2023-04-03T15:22:45;11.50;23.50
14604;DHT22;7388;51.078;13.740;2023-04-03T15:25:11;11.50;23.40
14604;DHT22;7388;51.078;13.740;2023-04-03T15:27:38;11.50;23.10
14604;DHT22;7388;51.078;13.740;2023-04-03T15:30:05;11.40;23.10
14604;DHT22;7388;51.078;13.740;2023-04-03T15:32:31;11.30;23.00
14604;DHT22;7388;51.078;13.740;2023-04-03T15:34:59;11.20;23.30
14604;DHT22;7388;51.078;13.740;2023-04-03T15:37:25;11.10;23.90
14604;DHT22;7388;51.078;13.740;2023-04-03T15:39:51;11.00;23.70
14604;DHT22;7388;51.078;13.740;2023-04-03T15:42:16;10.90;23.70
14604;DHT22;7388;51.078;13.740;2023-04-03T15:44:42;10.80;23.90
14604;DHT22;7388;51.078;13.740;2023-04-03T15:47:08;10.80;23.90
14604;DHT22;7388;51.078;13.740;2023-04-03T15:49:34;10.70;24.30
14604;DHT22;7388;51.078;13.740;2023-04-03T15:52:01;10.70;24.30
14604;DHT22;7388;51.078;13.740;2023-04-03T15:54:27;10.70;23.90
14604;DHT22;7388;51.078;13.740;2023-04-03T15:56:55;10.60;23.90
14604;DHT22;7388;51.078;13.740;2023-04-03T15:59:21;10.50;24.30
14604;DHT22;7388;51.078;13.740;2023-04-03T16:01:47;10.40;24.40
14604;DHT22;7388;51.078;13.740;2023-04-03T16:04:13;10.30;24.30
14604;DHT22;7388;51.078;13.740;2023-04-03T16:06:40;10.20;24.50
14604;DHT22;7388;51.078;13.740;2023-04-03T16:09:06;10.20;24.00
14604;DHT22;7388;51.078;13.740;2023-04-03T16:11:33;10.10;24.20
14604;DHT22;7388;51.078;13.740;2023-04-03T16:14:00;10.00;24.10
14604;DHT22;7388;51.078;13.740;2023-04-03T16:16:27;9.90;24.50
14604;DHT22;7388;51.078;13.740;2023-04-03T16:18:54;9.90;25.00
14604;DHT22;7388;51.078;13.740;2023-04-03T16:21:21;9.90;25.00
14604;DHT22;7388;51.078;13.740;2023-04-03T16:23:46;9.80;25.20
14604;DHT22;7388;51.078;13.740;2023-04-03T16:26:12;9.80;25.40
14604;DHT22;7388;51.078;13.740;2023-04-03T16:28:38;9.90;25.80
14604;DHT22;7388;51.078;13.740;2023-04-03T16:31:05;9.90;25.50
14604;DHT22;7388;51.078;13.740;2023-04-03T16:33:31;9.90;25.60
14604;DHT22;7388;51.078;13.740;2023-04-03T16:35:57;9.90;25.20
14604;DHT22;7388;51.078;13.740;2023-04-03T16:38:23;9.80;25.00
14604;DHT22;7388;51.078;13.740;2023-04-03T16:40:49;9.80;25.40
14604;DHT22;7388;51.078;13.740;2023-04-03T16:43:15;9.70;25.60
14604;DHT22;7388;51.078;13.740;2023-04-03T16:45:41;9.70;25.70
14604;DHT22;7388;51.078;13.740;2023-04-03T16:48:07;9.70;25.40
14604;DHT22;7388;51.078;13.740;2023-04-03T16:50:33;9.70;24.80
14604;DHT22;7388;51.078;13.740;2023-04-03T16:52:59;9.60;25.20
14604;DHT22;7388;51.078;13.740;2023-04-03T16:55:25;9.60;25.10
14604;DHT22;7388;51.078;13.740;2023-04-03T16:57:51;9.50;25.10
14604;DHT22;7388;51.078;13.740;2023-04-03T17:00:17;9.50;25.00
14604;DHT22;7388;51.078;13.740;2023-04-03T17:02:42;9.40;25.30
14604;DHT22;7388;51.078;13.740;2023-04-03T17:05:08;9.40;25.40
14604;DHT22;7388;51.078;13.740;2023-04-03T17:07:34;9.40;25.50
14604;DHT22;7388;51.078;13.740;2023-04-03T17:10:00;9.40;25.50
14604;DHT22;7388;51.078;13.740;2023-04-03T17:12:26;9.30;24.80